sensor_id;sensor_type;location;lat;lon;timestamp;P1;durP1;ratioP1;P2;durP2;ratioP2
21492;SDS011;10908;50.690;4.400;2023-12-14T00:00:20;38.47;;;17.38;;
21492;SDS011;10908;50.690;4.400;2023-12-14T00:02:46;37.90;;;17.70;;
21492;SDS011;10908;50.690;4.400;2023-12-14T00:05:11;36.42;;;17.60;;
21492;SDS011;10908;50.690;4.400;2023-12-14T00:07:37;42.50;;;18.20;;
21492;SDS011;10908;50.690;4.400;2023-12-14T00:10:03;41.85;;;17.30;;
21492;SDS011;10908;50.690;4.400;2023-12-14T00:12:30;40.20;;;17.48;;
21492;SDS011;10908;50.690;4.400;2023-12-14T00:14:56;35.15;;;16.63;;
21492;SDS011;10908;50.690;4.400;2023-12-14T00:17:22;40.42;;;18.02;;
21492;SDS011;10908;50.690;4.400;2023-12-14T00:19:47;38.60;;;16.95;;
21492;SDS011;10908;50.690;4.400;2023-12-14T00:22:13;45.25;;;18.80;;
21492;SDS011;10908;50.690;4.400;2023-12-14T00:24:39;40.10;;;17.95;;
21492;SDS011;10908;50.690;4.400;2023-12-14T00:27:07;39.72;;;16.77;;
21492;SDS011;10908;50.690;4.400;2023-12-14T00:29:33;45.92;;;18.98;;
21492;SDS011;10908;50.690;4.400;2023-12-14T00:31:59;41.72;;;18.25;;
21492;SDS011;10908;50.690;4.400;2023-12-14T00:34:24;45.58;;;18.55;;
21492;SDS011;10908;50.690;4.400;2023-12-14T00:36:50;44.53;;;18.92;;
21492;SDS011;10908;50.690;4.400;2023-12-14T00:39:15;43.00;;;18.55;;
21492;SDS011;10908;50.690;4.400;2023-12-14T00:41:41;40.88;;;17.20;;
21492;SDS011;10908;50.690;4.400;2023-12-14T00:44:07;43.38;;;19.63;;
21492;SDS011;10908;50.690;4.400;2023-12-14T00:46:32;40.85;;;19.38;;
21492;SDS011;10908;50.690;4.400;2023-12-14T00:48:58;41.58;;;18.27;;
21492;SDS011;10908;50.690;4.400;2023-12-14T00:51:24;43.50;;;18.20;;
21492;SDS011;10908;50.690;4.400;2023-12-14T00:53:49;39.58;;;17.58;;
21492;SDS011;10908;50.690;4.400;2023-12-14T00:56:15;40.25;;;18.27;;
21492;SDS011;10908;50.690;4.400;2023-12-14T00:58:41;37.53;;;17.35;;
21492;SDS011;10908;50.690;4.400;2023-12-14T01:01:06;40.42;;;18.30;;
21492;SDS011;10908;50.690;4.400;2023-12-14T01:03:32;38.30;;;17.35;;
21492;SDS011;10908;50.690;4.400;2023-12-14T01:05:58;38.75;;;18.02;;
21492;SDS011;10908;50.690;4.400;2023-12-14T01:08:23;41.38;;;17.73;;
21492;SDS011;10908;50.690;4.400;2023-12-14T01:10:49;48.15;;;19.42;;
21492;SDS011;10908;50.690;4.400;2023-12-14T01:13:15;40.25;;;18.40;;
21492;SDS011;10908;50.690;4.400;2023-12-14T01:15:40;41.08;;;19.30;;
21492;SDS011;10908;50.690;4.400;2023-12-14T01:18:06;47.05;;;19.60;;
21492;SDS011;10908;50.690;4.400;2023-12-14T01:20:32;44.42;;;19.75;;
21492;SDS011;10908;50.690;4.400;2023-12-14T01:22:57;43.92;;;19.80;;
21492;SDS011;10908;50.690;4.400;2023-12-14T01:25:23;49.15;;;20.73;;
21492;SDS011;10908;50.690;4.400;2023-12-14T01:27:49;44.28;;;19.63;;
21492;SDS011;10908;50.690;4.400;2023-12-14T01:30:14;45.10;;;20.17;;
21492;SDS011;10908;50.690;4.400;2023-12-14T01:32:40;44.95;;;19.83;;
21492;SDS011;10908;50.690;4.400;2023-12-14T01:35:06;45.13;;;20.70;;
21492;SDS011;10908;50.690;4.400;2023-12-14T01:37:32;44.60;;;21.10;;
21492;SDS011;10908;50.690;4.400;2023-12-14T01:39:57;49.80;;;21.90;;
21492;SDS011;10908;50.690;4.400;2023-12-14T01:42:23;48.58;;;21.63;;
21492;SDS011;10908;50.690;4.400;2023-12-14T01:44:49;48.03;;;21.27;;
21492;SDS011;10908;50.690;4.400;2023-12-14T01:47:14;47.53;;;21.80;;
21492;SDS011;10908;50.690;4.400;2023-12-14T01:49:40;42.53;;;19.95;;
21492;SDS011;10908;50.690;4.400;2023-12-14T01:52:06;47.35;;;20.80;;
21492;SDS011;10908;50.690;4.400;2023-12-14T01:54:32;49.33;;;20.42;;
21492;SDS011;10908;50.690;4.400;2023-12-14T01:56:59;51.67;;;21.65;;
21492;SDS011;10908;50.690;4.400;2023-12-14T01:59:24;47.15;;;20.98;;
21492;SDS011;10908;50.690;4.400;2023-12-14T02:01:54;54.80;;;22.17;;
21492;SDS011;10908;50.690;4.400;2023-12-14T02:04:22;51.83;;;21.92;;
21492;SDS011;10908;50.690;4.400;2023-12-14T02:06:49;55.60;;;24.05;;
21492;SDS011;10908;50.690;4.400;2023-12-14T02:09:15;58.22;;;24.25;;
21492;SDS011;10908;50.690;4.400;2023-12-14T02:11:40;54.78;;;24.30;;
21492;SDS011;10908;50.690;4.400;2023-12-14T02:14:06;62.78;;;26.42;;
21492;SDS011;10908;50.690;4.400;2023-12-14T02:16:34;61.60;;;25.40;;
21492;SDS011;10908;50.690;4.400;2023-12-14T02:19:00;63.95;;;25.52;;
21492;SDS011;10908;50.690;4.400;2023-12-14T02:21:25;58.78;;;23.95;;
21492;SDS011;10908;50.690;4.400;2023-12-14T02:23:51;57.40;;;23.77;;
21492;SDS011;10908;50.690;4.400;2023-12-14T02:26:17;53.75;;;22.45;;
21492;SDS011;10908;50.690;4.400;2023-12-14T02:28:42;56.90;;;22.33;;
21492;SDS011;10908;50.690;4.400;2023-12-14T02:31:08;52.67;;;23.48;;
21492;SDS011;10908;50.690;4.400;2023-12-14T02:33:34;53.30;;;22.52;;
21492;SDS011;10908;50.690;4.400;2023-12-14T02:36:00;53.67;;;22.40;;
21492;SDS011;10908;50.690;4.400;2023-12-14T02:38:25;52.10;;;22.15;;
21492;SDS011;10908;50.690;4.400;2023-12-14T02:40:51;52.28;;;21.65;;
21492;SDS011;10908;50.690;4.400;2023-12-14T02:43:17;50.35;;;21.55;;
21492;SDS011;10908;50.690;4.400;2023-12-14T02:45:44;54.60;;;21.55;;
21492;SDS011;10908;50.690;4.400;2023-12-14T02:48:10;59.92;;;21.52;;
21492;SDS011;10908;50.690;4.400;2023-12-14T02:50:36;51.28;;;21.38;;
21492;SDS011;10908;50.690;4.400;2023-12-14T02:53:01;50.78;;;20.83;;
21492;SDS011;10908;50.690;4.400;2023-12-14T02:55:27;52.60;;;21.08;;
21492;SDS011;10908;50.690;4.400;2023-12-14T02:57:53;51.75;;;21.00;;
21492;SDS011;10908;50.690;4.400;2023-12-14T03:00:18;51.78;;;20.55;;
21492;SDS011;10908;50.690;4.400;2023-12-14T03:02:44;50.00;;;20.40;;
21492;SDS011;10908;50.690;4.400;2023-12-14T03:05:10;49.05;;;20.33;;
21492;SDS011;10908;50.690;4.400;2023-12-14T03:07:36;48.30;;;20.95;;
21492;SDS011;10908;50.690;4.400;2023-12-14T03:10:02;56.90;;;20.65;;
21492;SDS011;10908;50.690;4.400;2023-12-14T03:12:28;48.70;;;20.17;;
21492;SDS011;10908;50.690;4.400;2023-12-14T03:14:54;51.45;;;21.75;;
21492;SDS011;10908;50.690;4.400;2023-12-14T03:17:20;49.58;;;19.70;;
21492;SDS011;10908;50.690;4.400;2023-12-14T03:19:46;51.13;;;20.65;;
21492;SDS011;10908;50.690;4.400;2023-12-14T03:22:12;47.42;;;19.85;;
21492;SDS011;10908;50.690;4.400;2023-12-14T03:24:37;51.97;;;21.30;;
21492;SDS011;10908;50.690;4.400;2023-12-14T03:27:03;51.13;;;22.40;;
21492;SDS011;10908;50.690;4.400;2023-12-14T03:29:29;54.13;;;23.80;;
21492;SDS011;10908;50.690;4.400;2023-12-14T03:31:56;55.35;;;24.70;;
21492;SDS011;10908;50.690;4.400;2023-12-14T03:34:22;60.38;;;24.30;;
21492;SDS011;10908;50.690;4.400;2023-12-14T03:36:47;61.22;;;24.60;;
21492;SDS011;10908;50.690;4.400;2023-12-14T03:39:13;58.50;;;24.95;;
21492;SDS011;10908;50.690;4.400;2023-12-14T03:41:39;58.95;;;25.08;;
21492;SDS011;10908;50.690;4.400;2023-12-14T03:44:05;57.13;;;24.38;;
21492;SDS011;10908;50.690;4.400;2023-12-14T03:46:31;55.55;;;23.67;;
21492;SDS011;10908;50.690;4.400;2023-12-14T03:48:57;57.20;;;23.92;;
21492;SDS011;10908;50.690;4.400;2023-12-14T03:51:22;52.50;;;23.23;;
21492;SDS011;10908;50.690;4.400;2023-12-14T03:53:48;57.70;;;24.30;;
21492;SDS011;10908;50.690;4.400;2023-12-14T03:56:13;62.53;;;25.02;;
21492;SDS011;10908;50.690;4.400;2023-12-14T03:58:39;55.13;;;22.73;;
21492;SDS011;10908;50.690;4.400;2023-12-14T04:01:05;50.30;;;21.65;;
21492;SDS011;10908;50.690;4.400;2023-12-14T04:03:30;55.90;;;21.83;;
21492;SDS011;10908;50.690;4.400;2023-12-14T04:05:57;47.90;;;20.67;;
21492;SDS011;10908;50.690;4.400;2023-12-14T04:08:22;48.17;;;19.38;;
21492;SDS011;10908;50.690;4.400;2023-12-14T04:10:48;39.17;;;17.70;;
21492;SDS011;10908;50.690;4.400;2023-12-14T04:13:14;33.67;;;14.98;;
21492;SDS011;10908;50.690;4.400;2023-12-14T04:15:39;32.88;;;14.90;;
21492;SDS011;10908;50.690;4.400;2023-12-14T04:18:06;34.50;;;15.45;;
21492;SDS011;10908;50.690;4.400;2023-12-14T04:20:33;35.78;;;16.75;;
21492;SDS011;10908;50.690;4.400;2023-12-14T04:22:59;38.47;;;16.90;;
21492;SDS011;10908;50.690;4.400;2023-12-14T04:25:24;39.40;;;17.88;;
21492;SDS011;10908;50.690;4.400;2023-12-14T04:27:50;39.05;;;16.92;;
21492;SDS011;10908;50.690;4.400;2023-12-14T04:30:16;36.63;;;16.88;;
21492;SDS011;10908;50.690;4.400;2023-12-14T04:32:42;35.83;;;16.65;;
21492;SDS011;10908;50.690;4.400;2023-12-14T04:35:07;41.22;;;17.88;;
21492;SDS011;10908;50.690;4.400;2023-12-14T04:37:33;38.40;;;16.65;;
21492;SDS011;10908;50.690;4.400;2023-12-14T04:39:59;35.85;;;16.65;;
21492;SDS011;10908;50.690;4.400;2023-12-14T04:42:25;34.15;;;16.88;;
21492;SDS011;10908;50.690;4.400;2023-12-14T04:44:51;36.83;;;16.90;;
21492;SDS011;10908;50.690;4.400;2023-12-14T04:47:16;33.20;;;15.43;;
21492;SDS011;10908;50.690;4.400;2023-12-14T04:49:42;33.65;;;16.00;;
21492;SDS011;10908;50.690;4.400;2023-12-14T04:52:08;33.33;;;16.05;;
21492;SDS011;10908;50.690;4.400;2023-12-14T04:54:33;32.60;;;15.18;;
21492;SDS011;10908;50.690;4.400;2023-12-14T04:57:03;32.10;;;15.65;;
21492;SDS011;10908;50.690;4.400;2023-12-14T04:59:29;29.17;;;14.60;;
21492;SDS011;10908;50.690;4.400;2023-12-14T05:01:54;28.58;;;14.02;;
21492;SDS011;10908;50.690;4.400;2023-12-14T05:04:20;26.02;;;13.82;;
21492;SDS011;10908;50.690;4.400;2023-12-14T05:06:46;27.70;;;14.65;;
21492;SDS011;10908;50.690;4.400;2023-12-14T05:09:11;28.58;;;14.48;;
21492;SDS011;10908;50.690;4.400;2023-12-14T05:11:39;28.48;;;15.77;;
21492;SDS011;10908;50.690;4.400;2023-12-14T05:14:05;29.80;;;15.63;;
21492;SDS011;10908;50.690;4.400;2023-12-14T05:16:31;28.95;;;15.40;;
21492;SDS011;10908;50.690;4.400;2023-12-14T05:18:57;28.05;;;15.63;;
21492;SDS011;10908;50.690;4.400;2023-12-14T05:21:22;26.15;;;15.13;;
21492;SDS011;10908;50.690;4.400;2023-12-14T05:23:48;27.75;;;15.73;;
21492;SDS011;10908;50.690;4.400;2023-12-14T05:26:14;28.10;;;15.02;;
21492;SDS011;10908;50.690;4.400;2023-12-14T05:28:40;25.98;;;14.85;;
21492;SDS011;10908;50.690;4.400;2023-12-14T05:31:06;26.33;;;14.95;;
21492;SDS011;10908;50.690;4.400;2023-12-14T05:33:31;27.40;;;15.38;;
21492;SDS011;10908;50.690;4.400;2023-12-14T05:36:01;26.15;;;15.32;;
21492;SDS011;10908;50.690;4.400;2023-12-14T05:38:26;28.10;;;15.82;;
21492;SDS011;10908;50.690;4.400;2023-12-14T05:40:52;27.23;;;15.68;;
21492;SDS011;10908;50.690;4.400;2023-12-14T05:43:18;27.23;;;15.20;;
21492;SDS011;10908;50.690;4.400;2023-12-14T05:45:43;27.30;;;15.45;;
21492;SDS011;10908;50.690;4.400;2023-12-14T05:48:09;29.73;;;16.83;;
21492;SDS011;10908;50.690;4.400;2023-12-14T05:50:34;29.63;;;16.10;;
21492;SDS011;10908;50.690;4.400;2023-12-14T05:53:00;30.45;;;16.70;;
21492;SDS011;10908;50.690;4.400;2023-12-14T05:58:02;32.40;;;17.15;;
21492;SDS011;10908;50.690;4.400;2023-12-14T06:00:28;29.38;;;16.73;;
21492;SDS011;10908;50.690;4.400;2023-12-14T06:02:53;28.30;;;16.45;;
21492;SDS011;10908;50.690;4.400;2023-12-14T06:05:19;30.65;;;16.60;;
21492;SDS011;10908;50.690;4.400;2023-12-14T06:07:45;29.83;;;16.83;;
21492;SDS011;10908;50.690;4.400;2023-12-14T06:10:11;27.23;;;15.48;;
21492;SDS011;10908;50.690;4.400;2023-12-14T06:12:37;27.55;;;15.98;;
21492;SDS011;10908;50.690;4.400;2023-12-14T06:15:03;26.85;;;15.48;;
21492;SDS011;10908;50.690;4.400;2023-12-14T06:17:29;28.13;;;16.38;;
21492;SDS011;10908;50.690;4.400;2023-12-14T06:19:56;26.13;;;16.00;;
21492;SDS011;10908;50.690;4.400;2023-12-14T06:22:22;27.80;;;16.02;;
21492;SDS011;10908;50.690;4.400;2023-12-14T06:24:48;26.63;;;15.65;;
21492;SDS011;10908;50.690;4.400;2023-12-14T06:27:13;27.17;;;16.08;;
21492;SDS011;10908;50.690;4.400;2023-12-14T06:29:39;27.15;;;15.63;;
21492;SDS011;10908;50.690;4.400;2023-12-14T06:32:05;25.80;;;15.95;;
21492;SDS011;10908;50.690;4.400;2023-12-14T06:34:31;29.60;;;16.00;;
21492;SDS011;10908;50.690;4.400;2023-12-14T06:36:57;28.15;;;15.93;;
21492;SDS011;10908;50.690;4.400;2023-12-14T06:39:25;27.25;;;15.88;;
21492;SDS011;10908;50.690;4.400;2023-12-14T06:41:52;27.75;;;14.90;;
21492;SDS011;10908;50.690;4.400;2023-12-14T06:44:18;26.40;;;15.13;;
21492;SDS011;10908;50.690;4.400;2023-12-14T06:46:44;24.50;;;14.27;;
21492;SDS011;10908;50.690;4.400;2023-12-14T06:49:09;25.05;;;14.50;;
21492;SDS011;10908;50.690;4.400;2023-12-14T06:51:35;24.65;;;14.77;;
21492;SDS011;10908;50.690;4.400;2023-12-14T06:54:01;26.85;;;15.35;;
21492;SDS011;10908;50.690;4.400;2023-12-14T06:56:27;23.48;;;13.32;;
21492;SDS011;10908;50.690;4.400;2023-12-14T06:58:53;25.75;;;14.77;;
21492;SDS011;10908;50.690;4.400;2023-12-14T07:01:18;25.65;;;14.60;;
21492;SDS011;10908;50.690;4.400;2023-12-14T07:03:44;23.73;;;13.80;;
21492;SDS011;10908;50.690;4.400;2023-12-14T07:06:13;23.92;;;14.32;;
21492;SDS011;10908;50.690;4.400;2023-12-14T07:08:40;25.98;;;14.77;;
21492;SDS011;10908;50.690;4.400;2023-12-14T07:11:09;29.55;;;14.57;;
21492;SDS011;10908;50.690;4.400;2023-12-14T07:13:36;24.27;;;13.02;;
21492;SDS011;10908;50.690;4.400;2023-12-14T07:16:08;26.00;;;14.07;;
21492;SDS011;10908;50.690;4.400;2023-12-14T07:18:36;25.83;;;14.20;;
21492;SDS011;10908;50.690;4.400;2023-12-14T07:21:03;23.88;;;13.45;;
21492;SDS011;10908;50.690;4.400;2023-12-14T07:23:29;24.60;;;13.25;;
21492;SDS011;10908;50.690;4.400;2023-12-14T07:25:55;24.10;;;12.55;;
21492;SDS011;10908;50.690;4.400;2023-12-14T07:28:21;25.50;;;13.05;;
21492;SDS011;10908;50.690;4.400;2023-12-14T07:30:47;23.05;;;12.32;;
21492;SDS011;10908;50.690;4.400;2023-12-14T07:33:16;19.60;;;11.75;;
21492;SDS011;10908;50.690;4.400;2023-12-14T07:35:42;22.77;;;11.73;;
21492;SDS011;10908;50.690;4.400;2023-12-14T07:38:09;21.02;;;11.77;;
21492;SDS011;10908;50.690;4.400;2023-12-14T07:40:35;21.75;;;11.20;;
21492;SDS011;10908;50.690;4.400;2023-12-14T07:43:01;19.98;;;11.18;;
21492;SDS011;10908;50.690;4.400;2023-12-14T07:45:27;20.50;;;10.80;;
21492;SDS011;10908;50.690;4.400;2023-12-14T07:47:52;19.90;;;10.63;;
21492;SDS011;10908;50.690;4.400;2023-12-14T07:50:18;18.55;;;10.40;;
21492;SDS011;10908;50.690;4.400;2023-12-14T07:52:44;21.58;;;10.93;;
21492;SDS011;10908;50.690;4.400;2023-12-14T07:55:10;19.73;;;10.38;;
21492;SDS011;10908;50.690;4.400;2023-12-14T07:57:38;21.33;;;11.15;;
21492;SDS011;10908;50.690;4.400;2023-12-14T08:00:04;18.85;;;10.63;;
21492;SDS011;10908;50.690;4.400;2023-12-14T08:02:30;20.33;;;10.73;;
21492;SDS011;10908;50.690;4.400;2023-12-14T08:04:56;18.70;;;10.90;;
21492;SDS011;10908;50.690;4.400;2023-12-14T08:07:22;20.85;;;10.68;;
21492;SDS011;10908;50.690;4.400;2023-12-14T08:09:47;20.80;;;11.40;;
21492;SDS011;10908;50.690;4.400;2023-12-14T08:12:13;18.80;;;10.57;;
21492;SDS011;10908;50.690;4.400;2023-12-14T08:14:39;25.80;;;13.20;;
21492;SDS011;10908;50.690;4.400;2023-12-14T08:17:08;28.02;;;13.75;;
21492;SDS011;10908;50.690;4.400;2023-12-14T08:19:34;30.80;;;14.30;;
21492;SDS011;10908;50.690;4.400;2023-12-14T08:22:00;22.63;;;12.57;;
21492;SDS011;10908;50.690;4.400;2023-12-14T08:24:25;23.27;;;12.27;;
21492;SDS011;10908;50.690;4.400;2023-12-14T08:26:51;23.17;;;11.50;;
21492;SDS011;10908;50.690;4.400;2023-12-14T08:29:17;21.95;;;12.07;;
21492;SDS011;10908;50.690;4.400;2023-12-14T08:31:42;19.98;;;10.68;;
21492;SDS011;10908;50.690;4.400;2023-12-14T08:34:08;21.27;;;11.18;;
21492;SDS011;10908;50.690;4.400;2023-12-14T08:36:34;24.42;;;11.40;;
21492;SDS011;10908;50.690;4.400;2023-12-14T08:38:59;19.17;;;11.80;;
21492;SDS011;10908;50.690;4.400;2023-12-14T08:41:25;20.70;;;12.00;;
21492;SDS011;10908;50.690;4.400;2023-12-14T08:43:51;20.35;;;11.35;;
21492;SDS011;10908;50.690;4.400;2023-12-14T08:46:16;23.85;;;11.85;;
21492;SDS011;10908;50.690;4.400;2023-12-14T08:48:42;22.85;;;11.10;;
21492;SDS011;10908;50.690;4.400;2023-12-14T08:51:08;21.10;;;10.73;;
21492;SDS011;10908;50.690;4.400;2023-12-14T08:53:34;17.83;;;9.95;;
21492;SDS011;10908;50.690;4.400;2023-12-14T08:55:59;19.10;;;10.65;;
21492;SDS011;10908;50.690;4.400;2023-12-14T08:58:25;18.90;;;10.50;;
21492;SDS011;10908;50.690;4.400;2023-12-14T09:00:50;21.88;;;11.02;;
21492;SDS011;10908;50.690;4.400;2023-12-14T09:03:20;23.42;;;10.40;;
21492;SDS011;10908;50.690;4.400;2023-12-14T09:05:46;22.60;;;10.93;;
21492;SDS011;10908;50.690;4.400;2023-12-14T09:08:12;18.83;;;10.05;;
21492;SDS011;10908;50.690;4.400;2023-12-14T09:10:38;16.98;;;9.60;;
21492;SDS011;10908;50.690;4.400;2023-12-14T09:13:04;21.00;;;9.95;;
21492;SDS011;10908;50.690;4.400;2023-12-14T09:15:33;18.10;;;9.93;;
21492;SDS011;10908;50.690;4.400;2023-12-14T09:17:59;19.23;;;9.63;;
21492;SDS011;10908;50.690;4.400;2023-12-14T09:20:25;18.98;;;9.77;;
21492;SDS011;10908;50.690;4.400;2023-12-14T09:22:51;16.65;;;9.32;;
21492;SDS011;10908;50.690;4.400;2023-12-14T09:25:17;17.60;;;9.20;;
21492;SDS011;10908;50.690;4.400;2023-12-14T09:27:43;14.90;;;8.07;;
21492;SDS011;10908;50.690;4.400;2023-12-14T09:30:09;14.95;;;8.13;;
21492;SDS011;10908;50.690;4.400;2023-12-14T09:32:35;13.75;;;7.45;;
21492;SDS011;10908;50.690;4.400;2023-12-14T09:35:01;12.60;;;6.80;;
21492;SDS011;10908;50.690;4.400;2023-12-14T09:37:27;15.38;;;7.75;;
21492;SDS011;10908;50.690;4.400;2023-12-14T09:39:53;15.43;;;7.20;;
21492;SDS011;10908;50.690;4.400;2023-12-14T09:42:19;13.27;;;7.10;;
21492;SDS011;10908;50.690;4.400;2023-12-14T09:44:46;15.85;;;7.47;;
21492;SDS011;10908;50.690;4.400;2023-12-14T09:47:13;13.43;;;6.68;;
21492;SDS011;10908;50.690;4.400;2023-12-14T09:49:39;13.02;;;6.93;;
21492;SDS011;10908;50.690;4.400;2023-12-14T09:52:08;14.73;;;6.40;;
21492;SDS011;10908;50.690;4.400;2023-12-14T09:54:34;13.90;;;5.90;;
21492;SDS011;10908;50.690;4.400;2023-12-14T09:57:00;15.70;;;6.60;;
21492;SDS011;10908;50.690;4.400;2023-12-14T09:59:25;10.52;;;5.45;;
21492;SDS011;10908;50.690;4.400;2023-12-14T10:01:51;14.38;;;6.25;;
21492;SDS011;10908;50.690;4.400;2023-12-14T10:04:18;14.93;;;5.95;;
21492;SDS011;10908;50.690;4.400;2023-12-14T10:06:45;11.68;;;5.90;;
21492;SDS011;10908;50.690;4.400;2023-12-14T10:09:12;13.32;;;5.43;;
21492;SDS011;10908;50.690;4.400;2023-12-14T10:11:40;13.13;;;5.10;;
21492;SDS011;10908;50.690;4.400;2023-12-14T10:14:20;11.55;;;5.57;;
21492;SDS011;10908;50.690;4.400;2023-12-14T10:16:47;12.38;;;5.47;;
21492;SDS011;10908;50.690;4.400;2023-12-14T10:19:14;11.20;;;5.22;;
21492;SDS011;10908;50.690;4.400;2023-12-14T10:21:42;13.43;;;5.40;;
21492;SDS011;10908;50.690;4.400;2023-12-14T10:24:08;12.07;;;5.85;;
21492;SDS011;10908;50.690;4.400;2023-12-14T10:26:34;12.23;;;5.45;;
21492;SDS011;10908;50.690;4.400;2023-12-14T10:29:00;11.63;;;5.88;;
21492;SDS011;10908;50.690;4.400;2023-12-14T10:31:29;13.25;;;5.80;;
21492;SDS011;10908;50.690;4.400;2023-12-14T10:33:56;13.48;;;5.68;;
21492;SDS011;10908;50.690;4.400;2023-12-14T10:36:24;12.77;;;5.90;;
21492;SDS011;10908;50.690;4.400;2023-12-14T10:38:52;14.25;;;5.63;;
21492;SDS011;10908;50.690;4.400;2023-12-14T10:41:20;11.60;;;5.65;;
21492;SDS011;10908;50.690;4.400;2023-12-14T10:43:47;10.77;;;5.05;;
21492;SDS011;10908;50.690;4.400;2023-12-14T10:46:15;13.73;;;5.18;;
21492;SDS011;10908;50.690;4.400;2023-12-14T10:48:44;12.57;;;5.38;;
21492;SDS011;10908;50.690;4.400;2023-12-14T10:51:12;14.45;;;5.00;;
21492;SDS011;10908;50.690;4.400;2023-12-14T10:53:38;15.43;;;5.45;;
21492;SDS011;10908;50.690;4.400;2023-12-14T10:56:04;12.18;;;4.90;;
21492;SDS011;10908;50.690;4.400;2023-12-14T10:58:44;10.75;;;4.53;;
21492;SDS011;10908;50.690;4.400;2023-12-14T11:01:14;11.65;;;5.00;;
21492;SDS011;10908;50.690;4.400;2023-12-14T11:03:41;12.73;;;5.10;;
21492;SDS011;10908;50.690;4.400;2023-12-14T11:06:25;12.10;;;5.32;;
21492;SDS011;10908;50.690;4.400;2023-12-14T11:08:59;11.77;;;4.82;;
21492;SDS011;10908;50.690;4.400;2023-12-14T11:11:31;12.00;;;5.15;;
21492;SDS011;10908;50.690;4.400;2023-12-14T11:14:10;12.13;;;5.20;;
21492;SDS011;10908;50.690;4.400;2023-12-14T11:16:38;15.40;;;5.80;;
21492;SDS011;10908;50.690;4.400;2023-12-14T11:24:31;12.63;;;5.63;;
21492;SDS011;10908;50.690;4.400;2023-12-14T11:26:57;13.38;;;5.60;;
21492;SDS011;10908;50.690;4.400;2023-12-14T11:29:22;13.70;;;5.93;;
21492;SDS011;10908;50.690;4.400;2023-12-14T11:31:48;14.55;;;5.95;;
21492;SDS011;10908;50.690;4.400;2023-12-14T11:34:14;15.13;;;5.90;;
21492;SDS011;10908;50.690;4.400;2023-12-14T11:36:40;16.80;;;6.50;;
21492;SDS011;10908;50.690;4.400;2023-12-14T11:39:09;15.18;;;6.50;;
21492;SDS011;10908;50.690;4.400;2023-12-14T11:41:36;14.10;;;6.07;;
21492;SDS011;10908;50.690;4.400;2023-12-14T11:44:03;12.52;;;5.28;;
21492;SDS011;10908;50.690;4.400;2023-12-14T11:46:30;15.73;;;5.70;;
21492;SDS011;10908;50.690;4.400;2023-12-14T11:48:57;14.40;;;6.10;;
21492;SDS011;10908;50.690;4.400;2023-12-14T11:51:23;14.27;;;5.85;;
21492;SDS011;10908;50.690;4.400;2023-12-14T11:53:51;13.43;;;5.88;;
21492;SDS011;10908;50.690;4.400;2023-12-14T11:56:17;13.90;;;6.20;;
21492;SDS011;10908;50.690;4.400;2023-12-14T11:58:44;15.20;;;6.40;;
21492;SDS011;10908;50.690;4.400;2023-12-14T12:01:17;17.50;;;6.55;;
21492;SDS011;10908;50.690;4.400;2023-12-14T12:03:44;16.65;;;6.22;;
21492;SDS011;10908;50.690;4.400;2023-12-14T12:06:26;14.10;;;6.15;;
21492;SDS011;10908;50.690;4.400;2023-12-14T12:08:58;12.77;;;5.57;;
21492;SDS011;10908;50.690;4.400;2023-12-14T12:11:24;15.98;;;6.85;;
21492;SDS011;10908;50.690;4.400;2023-12-14T12:13:52;18.05;;;6.93;;
21492;SDS011;10908;50.690;4.400;2023-12-14T12:16:22;15.13;;;6.55;;
21492;SDS011;10908;50.690;4.400;2023-12-14T12:18:48;14.07;;;6.97;;
21492;SDS011;10908;50.690;4.400;2023-12-14T12:21:15;13.55;;;6.80;;
21492;SDS011;10908;50.690;4.400;2023-12-14T12:23:41;17.92;;;7.60;;
21492;SDS011;10908;50.690;4.400;2023-12-14T12:26:07;18.17;;;7.70;;
21492;SDS011;10908;50.690;4.400;2023-12-14T12:28:33;14.57;;;7.25;;
21492;SDS011;10908;50.690;4.400;2023-12-14T12:30:58;15.77;;;7.20;;
21492;SDS011;10908;50.690;4.400;2023-12-14T12:33:25;13.77;;;6.88;;
21492;SDS011;10908;50.690;4.400;2023-12-14T12:35:51;18.23;;;7.13;;
21492;SDS011;10908;50.690;4.400;2023-12-14T12:38:17;14.75;;;6.90;;
21492;SDS011;10908;50.690;4.400;2023-12-14T12:40:44;14.45;;;6.43;;
21492;SDS011;10908;50.690;4.400;2023-12-14T12:43:10;15.90;;;7.22;;
21492;SDS011;10908;50.690;4.400;2023-12-14T12:45:36;15.30;;;7.53;;
21492;SDS011;10908;50.690;4.400;2023-12-14T12:48:02;14.65;;;6.63;;
21492;SDS011;10908;50.690;4.400;2023-12-14T12:50:29;16.27;;;7.68;;
21492;SDS011;10908;50.690;4.400;2023-12-14T12:52:55;16.17;;;7.90;;
21492;SDS011;10908;50.690;4.400;2023-12-14T12:55:21;14.18;;;6.22;;
21492;SDS011;10908;50.690;4.400;2023-12-14T12:57:47;16.10;;;6.50;;
21492;SDS011;10908;50.690;4.400;2023-12-14T13:00:13;15.55;;;6.13;;
21492;SDS011;10908;50.690;4.400;2023-12-14T13:02:40;14.50;;;6.03;;
21492;SDS011;10908;50.690;4.400;2023-12-14T13:05:07;11.32;;;5.15;;
21492;SDS011;10908;50.690;4.400;2023-12-14T13:07:34;16.10;;;6.10;;
21492;SDS011;10908;50.690;4.400;2023-12-14T13:10:00;13.18;;;6.20;;
21492;SDS011;10908;50.690;4.400;2023-12-14T13:12:25;17.10;;;6.25;;
21492;SDS011;10908;50.690;4.400;2023-12-14T13:14:51;12.98;;;5.35;;
21492;SDS011;10908;50.690;4.400;2023-12-14T13:17:17;12.30;;;5.38;;
21492;SDS011;10908;50.690;4.400;2023-12-14T13:19:43;11.38;;;5.38;;
21492;SDS011;10908;50.690;4.400;2023-12-14T13:22:09;14.15;;;5.75;;
21492;SDS011;10908;50.690;4.400;2023-12-14T13:24:38;10.90;;;5.43;;
21492;SDS011;10908;50.690;4.400;2023-12-14T13:27:04;10.82;;;5.38;;
21492;SDS011;10908;50.690;4.400;2023-12-14T13:29:30;12.25;;;5.60;;
21492;SDS011;10908;50.690;4.400;2023-12-14T13:31:57;8.93;;;4.78;;
21492;SDS011;10908;50.690;4.400;2023-12-14T13:34:24;10.05;;;4.88;;
21492;SDS011;10908;50.690;4.400;2023-12-14T13:36:50;10.32;;;5.18;;
21492;SDS011;10908;50.690;4.400;2023-12-14T13:39:16;11.52;;;5.15;;
21492;SDS011;10908;50.690;4.400;2023-12-14T13:41:42;16.23;;;5.63;;
21492;SDS011;10908;50.690;4.400;2023-12-14T13:44:08;12.20;;;5.18;;
21492;SDS011;10908;50.690;4.400;2023-12-14T13:46:34;9.95;;;5.18;;
21492;SDS011;10908;50.690;4.400;2023-12-14T13:49:00;12.50;;;5.57;;
21492;SDS011;10908;50.690;4.400;2023-12-14T13:51:26;12.85;;;5.15;;
21492;SDS011;10908;50.690;4.400;2023-12-14T13:53:53;13.35;;;5.70;;
21492;SDS011;10908;50.690;4.400;2023-12-14T13:56:18;13.35;;;5.63;;
21492;SDS011;10908;50.690;4.400;2023-12-14T13:58:44;11.20;;;5.20;;
21492;SDS011;10908;50.690;4.400;2023-12-14T14:01:09;13.95;;;5.18;;
21492;SDS011;10908;50.690;4.400;2023-12-14T14:03:35;13.57;;;5.43;;
21492;SDS011;10908;50.690;4.400;2023-12-14T14:06:02;14.32;;;5.47;;
21492;SDS011;10908;50.690;4.400;2023-12-14T14:08:28;13.15;;;5.70;;
21492;SDS011;10908;50.690;4.400;2023-12-14T14:10:56;13.85;;;5.55;;
21492;SDS011;10908;50.690;4.400;2023-12-14T14:13:22;13.95;;;5.35;;
21492;SDS011;10908;50.690;4.400;2023-12-14T14:15:48;12.48;;;5.18;;
21492;SDS011;10908;50.690;4.400;2023-12-14T14:18:14;12.68;;;5.20;;
21492;SDS011;10908;50.690;4.400;2023-12-14T14:20:39;11.82;;;5.30;;
21492;SDS011;10908;50.690;4.400;2023-12-14T14:23:05;12.15;;;5.32;;
21492;SDS011;10908;50.690;4.400;2023-12-14T14:25:30;15.50;;;5.53;;
21492;SDS011;10908;50.690;4.400;2023-12-14T14:27:56;10.90;;;5.32;;